Aviation Digital Data Service (ADDS)

Output produced by METARs form (1137 UTC 18 June 2019)
found at http://www.aviationweather.gov/metar/data/
 
METAR text: UTDD 181130Z VRB02MPS 9999 FEW066 32/M00 Q1007 R09/CLRD// NOSIG RMK QFE687/0916
Conditions at: UTDD (DUSHANBE , TJ) observed 1130 UTC 18 June 2019
Temperature: 32.0°C (90°F)
Dewpoint: 0.0°C (32°F) [RH = 13%]
Pressure (altimeter): 29.73 inches Hg (1007.0 mb)
Winds: variable direction winds at 5 MPH (4 knots; 2.1 m/s)
Visibility: 6 or more miles (10+ km)
Ceiling: at least 12,000 feet AGL
Clouds: few clouds at 6600 feet AGL
Weather: no significant weather observed at this time

METAR text: UTDD 181100Z VRB02MPS 9999 FEW066CB 33/05 Q1007 R09/D NOSIG RMK QFE687/0917
Conditions at: UTDD (DUSHANBE , TJ) observed 1100 UTC 18 June 2019
Temperature: 33.0°C (91°F)
Dewpoint: 5.0°C (41°F) [RH = 17%]
Pressure (altimeter): 29.73 inches Hg (1007.0 mb)
Winds: variable direction winds at 5 MPH (4 knots; 2.1 m/s)
Visibility: 6 or more miles (10+ km)
Ceiling: at least 12,000 feet AGL
Clouds: few clouds at 6600 feet AGL
Weather: no significant weather observed at this time

METAR text: UTDD 181030Z VRB02MPS 9999 FEW066CB 33/03 Q1007 R09/D NOSIG RMK QFE687/0917
Conditions at: UTDD (DUSHANBE , TJ) observed 1030 UTC 18 June 2019
Temperature: 33.0°C (91°F)
Dewpoint: 3.0°C (37°F) [RH = 15%]
Pressure (altimeter): 29.73 inches Hg (1007.0 mb)
Winds: variable direction winds at 5 MPH (4 knots; 2.1 m/s)
Visibility: 6 or more miles (10+ km)
Ceiling: at least 12,000 feet AGL
Clouds: few clouds at 6600 feet AGL
Weather: no significant weather observed at this time

METAR text: UTDD 181000Z VRB01MPS 9999 FEW066CB 33/05 Q1007 R09/D NOSIG RMK QFE688/0917
Conditions at: UTDD (DUSHANBE , TJ) observed 1000 UTC 18 June 2019
Temperature: 33.0°C (91°F)
Dewpoint: 5.0°C (41°F) [RH = 17%]
Pressure (altimeter): 29.73 inches Hg (1007.0 mb)
Winds: variable direction winds at 2 MPH (2 knots; 1.0 m/s)
Visibility: 6 or more miles (10+ km)
Ceiling: at least 12,000 feet AGL
Clouds: few clouds at 6600 feet AGL
Weather: no significant weather observed at this time

METAR text: UTDD 180930Z VRB01MPS 9999 FEW066CB 33/02 Q1007 R09/D NOSIG RMK QFE688/0917
Conditions at: UTDD (DUSHANBE , TJ) observed 0930 UTC 18 June 2019
Temperature: 33.0°C (91°F)
Dewpoint: 2.0°C (36°F) [RH = 14%]
Pressure (altimeter): 29.73 inches Hg (1007.0 mb)
Winds: variable direction winds at 2 MPH (2 knots; 1.0 m/s)
Visibility: 6 or more miles (10+ km)
Ceiling: at least 12,000 feet AGL
Clouds: few clouds at 6600 feet AGL
Weather: no significant weather observed at this time

METAR text: UTDD 180900Z VRB02MPS 9999 FEW066CB 33/06 Q1008 R09/D NOSIG RMK QFE688/0917
Conditions at: UTDD (DUSHANBE , TJ) observed 0900 UTC 18 June 2019
Temperature: 33.0°C (91°F)
Dewpoint: 6.0°C (43°F) [RH = 19%]
Pressure (altimeter): 29.76 inches Hg (1008.0 mb)
Winds: variable direction winds at 5 MPH (4 knots; 2.1 m/s)
Visibility: 6 or more miles (10+ km)
Ceiling: at least 12,000 feet AGL
Clouds: few clouds at 6600 feet AGL
Weather: no significant weather observed at this time

METAR text: UTDD 180830Z 14003MPS 110V170 9999 FEW066 32/05 Q1008 R09/D NOSIG RMK QFE688/0917
Conditions at: UTDD (DUSHANBE , TJ) observed 0830 UTC 18 June 2019
Temperature: 32.0°C (90°F)
Dewpoint: 5.0°C (41°F) [RH = 18%]
Pressure (altimeter): 29.76 inches Hg (1008.0 mb)
Winds: from the SE (140 degrees) at 7 MPH (6 knots; 3.1 m/s)
Visibility: 6 or more miles (10+ km)
Ceiling: at least 12,000 feet AGL
Clouds: few clouds at 6600 feet AGL
Weather: no significant weather observed at this time

METAR text: UTDD 180800Z VRB02MPS 9999 FEW066 32/07 Q1008 R09/D NOSIG RMK QFE688/0917
Conditions at: UTDD (DUSHANBE , TJ) observed 0800 UTC 18 June 2019
Temperature: 32.0°C (90°F)
Dewpoint: 7.0°C (45°F) [RH = 21%]
Pressure (altimeter): 29.76 inches Hg (1008.0 mb)
Winds: variable direction winds at 5 MPH (4 knots; 2.1 m/s)
Visibility: 6 or more miles (10+ km)
Ceiling: at least 12,000 feet AGL
Clouds: few clouds at 6600 feet AGL
Weather: no significant weather observed at this time

METAR text: UTDD 180730Z VRB02MPS 9999 FEW066 32/09 Q1008 R09/D NOSIG RMK QFE688/0918
Conditions at: UTDD (DUSHANBE , TJ) observed 0730 UTC 18 June 2019
Temperature: 32.0°C (90°F)
Dewpoint: 9.0°C (48°F) [RH = 24%]
Pressure (altimeter): 29.76 inches Hg (1008.0 mb)
Winds: variable direction winds at 5 MPH (4 knots; 2.1 m/s)
Visibility: 6 or more miles (10+ km)
Ceiling: at least 12,000 feet AGL
Clouds: few clouds at 6600 feet AGL
Weather: no significant weather observed at this time

METAR text: UTDD 180700Z VRB02MPS 9999 FEW066 31/07 Q1008 R09/D NOSIG RMK QFE688/0918
Conditions at: UTDD (DUSHANBE , TJ) observed 0700 UTC 18 June 2019
Temperature: 31.0°C (88°F)
Dewpoint: 7.0°C (45°F) [RH = 22%]
Pressure (altimeter): 29.76 inches Hg (1008.0 mb)
Winds: variable direction winds at 5 MPH (4 knots; 2.1 m/s)
Visibility: 6 or more miles (10+ km)
Ceiling: at least 12,000 feet AGL
Clouds: few clouds at 6600 feet AGL
Weather: no significant weather observed at this time

METAR text: UTDD 180630Z VRB01MPS 9999 FEW066 32/08 Q1008 R09/D NOSIG RMK QFE688/0918
Conditions at: UTDD (DUSHANBE , TJ) observed 0630 UTC 18 June 2019
Temperature: 32.0°C (90°F)
Dewpoint: 8.0°C (46°F) [RH = 23%]
Pressure (altimeter): 29.76 inches Hg (1008.0 mb)
Winds: variable direction winds at 2 MPH (2 knots; 1.0 m/s)
Visibility: 6 or more miles (10+ km)
Ceiling: at least 12,000 feet AGL
Clouds: few clouds at 6600 feet AGL
Weather: no significant weather observed at this time

METAR text: UTDD 180600Z VRB02MPS 9999 FEW066 31/10 Q1009 R09/D NOSIG RMK QFE689/0918
Conditions at: UTDD (DUSHANBE , TJ) observed 0600 UTC 18 June 2019
Temperature: 31.0°C (88°F)
Dewpoint: 10.0°C (50°F) [RH = 27%]
Pressure (altimeter): 29.79 inches Hg (1009.0 mb)
Winds: variable direction winds at 5 MPH (4 knots; 2.1 m/s)
Visibility: 6 or more miles (10+ km)
Ceiling: at least 12,000 feet AGL
Clouds: few clouds at 6600 feet AGL
Weather: no significant weather observed at this time

METAR text: UTDD 180530Z VRB02MPS 9999 FEW066 31/09 Q1009 R09/D NOSIG RMK QFE689/0918
Conditions at: UTDD (DUSHANBE , TJ) observed 0530 UTC 18 June 2019
Temperature: 31.0°C (88°F)
Dewpoint: 9.0°C (48°F) [RH = 26%]
Pressure (altimeter): 29.79 inches Hg (1009.0 mb)
Winds: variable direction winds at 5 MPH (4 knots; 2.1 m/s)
Visibility: 6 or more miles (10+ km)
Ceiling: at least 12,000 feet AGL
Clouds: few clouds at 6600 feet AGL
Weather: no significant weather observed at this time

METAR text: UTDD 180500Z 10004MPS 080V150 9999 FEW066 30/11 Q1009 R09/D NOSIG RMK QFE689/0918
Conditions at: UTDD (DUSHANBE , TJ) observed 0500 UTC 18 June 2019
Temperature: 30.0°C (86°F)
Dewpoint: 11.0°C (52°F) [RH = 31%]
Pressure (altimeter): 29.79 inches Hg (1009.0 mb)
Winds: from the E (100 degrees) at 9 MPH (8 knots; 4.1 m/s)
Visibility: 6 or more miles (10+ km)
Ceiling: at least 12,000 feet AGL
Clouds: few clouds at 6600 feet AGL
Weather: no significant weather observed at this time

METAR text: UTDD 180430Z VRB02MPS 9999 FEW066 29/13 Q1009 R09/D NOSIG RMK QFE689/0918
Conditions at: UTDD (DUSHANBE , TJ) observed 0430 UTC 18 June 2019
Temperature: 29.0°C (84°F)
Dewpoint: 13.0°C (55°F) [RH = 37%]
Pressure (altimeter): 29.79 inches Hg (1009.0 mb)
Winds: variable direction winds at 5 MPH (4 knots; 2.1 m/s)
Visibility: 6 or more miles (10+ km)
Ceiling: at least 12,000 feet AGL
Clouds: few clouds at 6600 feet AGL
Weather: no significant weather observed at this time

METAR text: UTDD 180400Z 09002MPS 9999 FEW066 27/11 Q1009 R09/D NOSIG RMK QFE689/0918
Conditions at: UTDD (DUSHANBE , TJ) observed 0400 UTC 18 June 2019
Temperature: 27.0°C (81°F)
Dewpoint: 11.0°C (52°F) [RH = 37%]
Pressure (altimeter): 29.79 inches Hg (1009.0 mb)
Winds: from the E (90 degrees) at 5 MPH (4 knots; 2.1 m/s)
Visibility: 6 or more miles (10+ km)
Ceiling: at least 12,000 feet AGL
Clouds: few clouds at 6600 feet AGL
Weather: no significant weather observed at this time

METAR text: UTDD 180330Z VRB02MPS 9999 NSC 25/11 Q1009 R09/D NOSIG RMK QFE689/0919
Conditions at: UTDD (DUSHANBE , TJ) observed 0330 UTC 18 June 2019
Temperature: 25.0°C (77°F)
Dewpoint: 11.0°C (52°F) [RH = 41%]
Pressure (altimeter): 29.79 inches Hg (1009.0 mb)
Winds: variable direction winds at 5 MPH (4 knots; 2.1 m/s)
Visibility: 6 or more miles (10+ km)
Ceiling: at least 12,000 feet AGL
Clouds: sky clear below 12,000 feet AGL
Weather: no significant weather observed at this time

METAR text: UTDD 180300Z 11003MPS 9999 NSC 24/11 Q1009 R09/D NOSIG RMK QFE689/0919
Conditions at: UTDD (DUSHANBE , TJ) observed 0300 UTC 18 June 2019
Temperature: 24.0°C (75°F)
Dewpoint: 11.0°C (52°F) [RH = 44%]
Pressure (altimeter): 29.79 inches Hg (1009.0 mb)
Winds: from the ESE (110 degrees) at 7 MPH (6 knots; 3.1 m/s)
Visibility: 6 or more miles (10+ km)
Ceiling: at least 12,000 feet AGL
Clouds: sky clear below 12,000 feet AGL
Weather: no significant weather observed at this time

METAR text: UTDD 180230Z VRB01MPS 9999 NSC 23/13 Q1009 R09/D NOSIG RMK QFE689/0918
Conditions at: UTDD (DUSHANBE , TJ) observed 0230 UTC 18 June 2019
Temperature: 23.0°C (73°F)
Dewpoint: 13.0°C (55°F) [RH = 53%]
Pressure (altimeter): 29.79 inches Hg (1009.0 mb)
Winds: variable direction winds at 2 MPH (2 knots; 1.0 m/s)
Visibility: 6 or more miles (10+ km)
Ceiling: at least 12,000 feet AGL
Clouds: sky clear below 12,000 feet AGL
Weather: no significant weather observed at this time

METAR text: UTDD 180200Z 00000MPS 9999 NSC 21/13 Q1009 R09/D NOSIG RMK QFE689/0918
Conditions at: UTDD (DUSHANBE , TJ) observed 0200 UTC 18 June 2019
Temperature: 21.0°C (70°F)
Dewpoint: 13.0°C (55°F) [RH = 60%]
Pressure (altimeter): 29.79 inches Hg (1009.0 mb)
Winds: calm
Visibility: 6 or more miles (10+ km)
Ceiling: at least 12,000 feet AGL
Clouds: sky clear below 12,000 feet AGL
Weather: no significant weather observed at this time

METAR text: UTDD 180130Z VRB01MPS 9999 NSC 19/11 Q1009 R09/D NOSIG RMK QFE689/0918
Conditions at: UTDD (DUSHANBE , TJ) observed 0130 UTC 18 June 2019
Temperature: 19.0°C (66°F)
Dewpoint: 11.0°C (52°F) [RH = 60%]
Pressure (altimeter): 29.79 inches Hg (1009.0 mb)
Winds: variable direction winds at 2 MPH (2 knots; 1.0 m/s)
Visibility: 6 or more miles (10+ km)
Ceiling: at least 12,000 feet AGL
Clouds: sky clear below 12,000 feet AGL
Weather: no significant weather observed at this time

METAR text: UTDD 180100Z 35001MPS 9999 NSC 18/11 Q1009 R09/D NOSIG RMK QFE688/0918
Conditions at: UTDD (DUSHANBE , TJ) observed 0100 UTC 18 June 2019
Temperature: 18.0°C (64°F)
Dewpoint: 11.0°C (52°F) [RH = 64%]
Pressure (altimeter): 29.79 inches Hg (1009.0 mb)
Winds: from the N (350 degrees) at 2 MPH (2 knots; 1.0 m/s)
Visibility: 6 or more miles (10+ km)
Ceiling: at least 12,000 feet AGL
Clouds: sky clear below 12,000 feet AGL
Weather: no significant weather observed at this time

METAR text: UTDD 180030Z 02001MPS 9999 NSC 18/10 Q1008 R09/D NOSIG RMK QFE688/0918
Conditions at: UTDD (DUSHANBE , TJ) observed 0030 UTC 18 June 2019
Temperature: 18.0°C (64°F)
Dewpoint: 10.0°C (50°F) [RH = 59%]
Pressure (altimeter): 29.76 inches Hg (1008.0 mb)
Winds: from the NNE (20 degrees) at 2 MPH (2 knots; 1.0 m/s)
Visibility: 6 or more miles (10+ km)
Ceiling: at least 12,000 feet AGL
Clouds: sky clear below 12,000 feet AGL
Weather: no significant weather observed at this time

METAR text: UTDD 180000Z 03001MPS 9999 NSC 17/10 Q1008 R09/D NOSIG RMK QFE688/0918
Conditions at: UTDD (DUSHANBE , TJ) observed 0000 UTC 18 June 2019
Temperature: 17.0°C (63°F)
Dewpoint: 10.0°C (50°F) [RH = 63%]
Pressure (altimeter): 29.76 inches Hg (1008.0 mb)
Winds: from the NNE (30 degrees) at 2 MPH (2 knots; 1.0 m/s)
Visibility: 6 or more miles (10+ km)
Ceiling: at least 12,000 feet AGL
Clouds: sky clear below 12,000 feet AGL
Weather: no significant weather observed at this time

METAR text: UTDD 172330Z 00000MPS 9999 NSC 17/10 Q1008 R09/D NOSIG RMK QFE688/0918
Conditions at: UTDD (DUSHANBE , TJ) observed 2330 UTC 17 June 2019
Temperature: 17.0°C (63°F)
Dewpoint: 10.0°C (50°F) [RH = 63%]
Pressure (altimeter): 29.76 inches Hg (1008.0 mb)
Winds: calm
Visibility: 6 or more miles (10+ km)
Ceiling: at least 12,000 feet AGL
Clouds: sky clear below 12,000 feet AGL
Weather: no significant weather observed at this time

METAR text: UTDD 172300Z 00000MPS 9999 NSC 18/10 Q1008 R09/D NOSIG RMK QFE688/0918
Conditions at: UTDD (DUSHANBE , TJ) observed 2300 UTC 17 June 2019
Temperature: 18.0°C (64°F)
Dewpoint: 10.0°C (50°F) [RH = 59%]
Pressure (altimeter): 29.76 inches Hg (1008.0 mb)
Winds: calm
Visibility: 6 or more miles (10+ km)
Ceiling: at least 12,000 feet AGL
Clouds: sky clear below 12,000 feet AGL
Weather: no significant weather observed at this time

METAR text: UTDD 172230Z 00000MPS 9999 FEW120 18/10 Q1008 R09/D NOSIG RMK QFE688/0918
Conditions at: UTDD (DUSHANBE , TJ) observed 2230 UTC 17 June 2019
Temperature: 18.0°C (64°F)
Dewpoint: 10.0°C (50°F) [RH = 59%]
Pressure (altimeter): 29.76 inches Hg (1008.0 mb)
Winds: calm
Visibility: 6 or more miles (10+ km)
Ceiling: at least 12,000 feet AGL
Clouds: few clouds at 12000 feet AGL
Weather: no significant weather observed at this time

METAR text: UTDD 172200Z VRB01MPS 9999 FEW120 17/10 Q1008 R09/D NOSIG RMK QFE688/0918
Conditions at: UTDD (DUSHANBE , TJ) observed 2200 UTC 17 June 2019
Temperature: 17.0°C (63°F)
Dewpoint: 10.0°C (50°F) [RH = 63%]
Pressure (altimeter): 29.76 inches Hg (1008.0 mb)
Winds: variable direction winds at 2 MPH (2 knots; 1.0 m/s)
Visibility: 6 or more miles (10+ km)
Ceiling: at least 12,000 feet AGL
Clouds: few clouds at 12000 feet AGL
Weather: no significant weather observed at this time

METAR text: UTDD 172130Z 11001MPS 9999 NSC 18/09 Q1008 R09/D NOSIG RMK QFE688/0918
Conditions at: UTDD (DUSHANBE , TJ) observed 2130 UTC 17 June 2019
Temperature: 18.0°C (64°F)
Dewpoint: 9.0°C (48°F) [RH = 56%]
Pressure (altimeter): 29.76 inches Hg (1008.0 mb)
Winds: from the ESE (110 degrees) at 2 MPH (2 knots; 1.0 m/s)
Visibility: 6 or more miles (10+ km)
Ceiling: at least 12,000 feet AGL
Clouds: sky clear below 12,000 feet AGL
Weather: no significant weather observed at this time

METAR text: UTDD 172100Z 11002MPS 9999 NSC 18/09 Q1008 R09/D NOSIG RMK QFE688/0918
Conditions at: UTDD (DUSHANBE , TJ) observed 2100 UTC 17 June 2019
Temperature: 18.0°C (64°F)
Dewpoint: 9.0°C (48°F) [RH = 56%]
Pressure (altimeter): 29.76 inches Hg (1008.0 mb)
Winds: from the ESE (110 degrees) at 5 MPH (4 knots; 2.1 m/s)
Visibility: 6 or more miles (10+ km)
Ceiling: at least 12,000 feet AGL
Clouds: sky clear below 12,000 feet AGL
Weather: no significant weather observed at this time

METAR text: UTDD 172030Z 00000MPS 9999 NSC 20/09 Q1008 R09/D NOSIG RMK QFE688/0918
Conditions at: UTDD (DUSHANBE , TJ) observed 2030 UTC 17 June 2019
Temperature: 20.0°C (68°F)
Dewpoint: 9.0°C (48°F) [RH = 49%]
Pressure (altimeter): 29.76 inches Hg (1008.0 mb)
Winds: calm
Visibility: 6 or more miles (10+ km)
Ceiling: at least 12,000 feet AGL
Clouds: sky clear below 12,000 feet AGL
Weather: no significant weather observed at this time

METAR text: UTDD 172000Z 00000MPS 9999 NSC 21/10 Q1009 R09/D NOSIG RMK QFE689/0918
Conditions at: UTDD (DUSHANBE , TJ) observed 2000 UTC 17 June 2019
Temperature: 21.0°C (70°F)
Dewpoint: 10.0°C (50°F) [RH = 49%]
Pressure (altimeter): 29.79 inches Hg (1009.0 mb)
Winds: calm
Visibility: 6 or more miles (10+ km)
Ceiling: at least 12,000 feet AGL
Clouds: sky clear below 12,000 feet AGL
Weather: no significant weather observed at this time

METAR text: UTDD 171930Z VRB01MPS 9999 NSC 21/10 Q1009 R09/D NOSIG RMK QFE689/0918
Conditions at: UTDD (DUSHANBE , TJ) observed 1930 UTC 17 June 2019
Temperature: 21.0°C (70°F)
Dewpoint: 10.0°C (50°F) [RH = 49%]
Pressure (altimeter): 29.79 inches Hg (1009.0 mb)
Winds: variable direction winds at 2 MPH (2 knots; 1.0 m/s)
Visibility: 6 or more miles (10+ km)
Ceiling: at least 12,000 feet AGL
Clouds: sky clear below 12,000 feet AGL
Weather: no significant weather observed at this time

METAR text: UTDD 171900Z 12001MPS 9999 NSC 20/10 Q1009 R09/D NOSIG RMK QFE689/0918
Conditions at: UTDD (DUSHANBE , TJ) observed 1900 UTC 17 June 2019
Temperature: 20.0°C (68°F)
Dewpoint: 10.0°C (50°F) [RH = 53%]
Pressure (altimeter): 29.79 inches Hg (1009.0 mb)
Winds: from the ESE (120 degrees) at 2 MPH (2 knots; 1.0 m/s)
Visibility: 6 or more miles (10+ km)
Ceiling: at least 12,000 feet AGL
Clouds: sky clear below 12,000 feet AGL
Weather: no significant weather observed at this time

METAR text: UTDD 171830Z 08002MPS 9999 NSC 21/10 Q1009 R09/D NOSIG RMK QFE689/0918
Conditions at: UTDD (DUSHANBE , TJ) observed 1830 UTC 17 June 2019
Temperature: 21.0°C (70°F)
Dewpoint: 10.0°C (50°F) [RH = 49%]
Pressure (altimeter): 29.79 inches Hg (1009.0 mb)
Winds: from the E (80 degrees) at 5 MPH (4 knots; 2.1 m/s)
Visibility: 6 or more miles (10+ km)
Ceiling: at least 12,000 feet AGL
Clouds: sky clear below 12,000 feet AGL
Weather: no significant weather observed at this time

METAR text: UTDD 171800Z 11002MPS 9999 NSC 21/10 Q1009 R09/D NOSIG RMK QFE689/0918
Conditions at: UTDD (DUSHANBE , TJ) observed 1800 UTC 17 June 2019
Temperature: 21.0°C (70°F)
Dewpoint: 10.0°C (50°F) [RH = 49%]
Pressure (altimeter): 29.79 inches Hg (1009.0 mb)
Winds: from the ESE (110 degrees) at 5 MPH (4 knots; 2.1 m/s)
Visibility: 6 or more miles (10+ km)
Ceiling: at least 12,000 feet AGL
Clouds: sky clear below 12,000 feet AGL
Weather: no significant weather observed at this time

METAR text: UTDD 171730Z 07001MPS 9999 NSC 22/09 Q1009 R09/D NOSIG RMK QFE689/0918
Conditions at: UTDD (DUSHANBE , TJ) observed 1730 UTC 17 June 2019
Temperature: 22.0°C (72°F)
Dewpoint: 9.0°C (48°F) [RH = 43%]
Pressure (altimeter): 29.79 inches Hg (1009.0 mb)
Winds: from the ENE (70 degrees) at 2 MPH (2 knots; 1.0 m/s)
Visibility: 6 or more miles (10+ km)
Ceiling: at least 12,000 feet AGL
Clouds: sky clear below 12,000 feet AGL
Weather: no significant weather observed at this time

METAR text: UTDD 171700Z VRB01MPS 9999 NSC 24/09 Q1008 R09/D NOSIG RMK QFE688/0918
Conditions at: UTDD (DUSHANBE , TJ) observed 1700 UTC 17 June 2019
Temperature: 24.0°C (75°F)
Dewpoint: 9.0°C (48°F) [RH = 38%]
Pressure (altimeter): 29.76 inches Hg (1008.0 mb)
Winds: variable direction winds at 2 MPH (2 knots; 1.0 m/s)
Visibility: 6 or more miles (10+ km)
Ceiling: at least 12,000 feet AGL
Clouds: sky clear below 12,000 feet AGL
Weather: no significant weather observed at this time

METAR text: UTDD 171630Z VRB02MPS 9999 NSC 23/10 Q1008 R09/D NOSIG RMK QFE688/0918
Conditions at: UTDD (DUSHANBE , TJ) observed 1630 UTC 17 June 2019
Temperature: 23.0°C (73°F)
Dewpoint: 10.0°C (50°F) [RH = 44%]
Pressure (altimeter): 29.76 inches Hg (1008.0 mb)
Winds: variable direction winds at 5 MPH (4 knots; 2.1 m/s)
Visibility: 6 or more miles (10+ km)
Ceiling: at least 12,000 feet AGL
Clouds: sky clear below 12,000 feet AGL
Weather: no significant weather observed at this time

METAR text: UTDD 171600Z VRB01MPS 9999 NSC 26/08 Q1008 R09/D NOSIG RMK QFE688/0917
Conditions at: UTDD (DUSHANBE , TJ) observed 1600 UTC 17 June 2019
Temperature: 26.0°C (79°F)
Dewpoint: 8.0°C (46°F) [RH = 32%]
Pressure (altimeter): 29.76 inches Hg (1008.0 mb)
Winds: variable direction winds at 2 MPH (2 knots; 1.0 m/s)
Visibility: 6 or more miles (10+ km)
Ceiling: at least 12,000 feet AGL
Clouds: sky clear below 12,000 feet AGL
Weather: no significant weather observed at this time

METAR text: UTDD 171530Z VRB01MPS 9999 NSC 25/09 Q1008 R09/D NOSIG RMK QFE688/0917
Conditions at: UTDD (DUSHANBE , TJ) observed 1530 UTC 17 June 2019
Temperature: 25.0°C (77°F)
Dewpoint: 9.0°C (48°F) [RH = 36%]
Pressure (altimeter): 29.76 inches Hg (1008.0 mb)
Winds: variable direction winds at 2 MPH (2 knots; 1.0 m/s)
Visibility: 6 or more miles (10+ km)
Ceiling: at least 12,000 feet AGL
Clouds: sky clear below 12,000 feet AGL
Weather: no significant weather observed at this time

METAR text: UTDD 171500Z VRB01MPS 9999 NSC 28/07 Q1007 R09/D NOSIG RMK QFE688/0917
Conditions at: UTDD (DUSHANBE , TJ) observed 1500 UTC 17 June 2019
Temperature: 28.0°C (82°F)
Dewpoint: 7.0°C (45°F) [RH = 27%]
Pressure (altimeter): 29.73 inches Hg (1007.0 mb)
Winds: variable direction winds at 2 MPH (2 knots; 1.0 m/s)
Visibility: 6 or more miles (10+ km)
Ceiling: at least 12,000 feet AGL
Clouds: sky clear below 12,000 feet AGL
Weather: no significant weather observed at this time

METAR text: UTDD 171430Z VRB01MPS 9999 NSC 30/05 Q1007 R09/D NOSIG RMK QFE688/0917
Conditions at: UTDD (DUSHANBE , TJ) observed 1430 UTC 17 June 2019
Temperature: 30.0°C (86°F)
Dewpoint: 5.0°C (41°F) [RH = 21%]
Pressure (altimeter): 29.73 inches Hg (1007.0 mb)
Winds: variable direction winds at 2 MPH (2 knots; 1.0 m/s)
Visibility: 6 or more miles (10+ km)
Ceiling: at least 12,000 feet AGL
Clouds: sky clear below 12,000 feet AGL
Weather: no significant weather observed at this time

METAR text: UTDD 171400Z 27002MPS 9999 NSC 30/05 Q1007 R09/D NOSIG RMK QFE687/0917
Conditions at: UTDD (DUSHANBE , TJ) observed 1400 UTC 17 June 2019
Temperature: 30.0°C (86°F)
Dewpoint: 5.0°C (41°F) [RH = 21%]
Pressure (altimeter): 29.73 inches Hg (1007.0 mb)
Winds: from the W (270 degrees) at 5 MPH (4 knots; 2.1 m/s)
Visibility: 6 or more miles (10+ km)
Ceiling: at least 12,000 feet AGL
Clouds: sky clear below 12,000 feet AGL
Weather: no significant weather observed at this time

METAR text: UTDD 171330Z VRB02MPS 9999 FEW066 31/09 Q1007 R09/D NOSIG RMK QFE687/0917
Conditions at: UTDD (DUSHANBE , TJ) observed 1330 UTC 17 June 2019
Temperature: 31.0°C (88°F)
Dewpoint: 9.0°C (48°F) [RH = 26%]
Pressure (altimeter): 29.73 inches Hg (1007.0 mb)
Winds: variable direction winds at 5 MPH (4 knots; 2.1 m/s)
Visibility: 6 or more miles (10+ km)
Ceiling: at least 12,000 feet AGL
Clouds: few clouds at 6600 feet AGL
Weather: no significant weather observed at this time

METAR text: UTDD 171300Z 29003MPS 240V320 9999 FEW066 32/06 Q1007 R09/D NOSIG RMK QFE687/0917
Conditions at: UTDD (DUSHANBE , TJ) observed 1300 UTC 17 June 2019
Temperature: 32.0°C (90°F)
Dewpoint: 6.0°C (43°F) [RH = 20%]
Pressure (altimeter): 29.73 inches Hg (1007.0 mb)
Winds: from the WNW (290 degrees) at 7 MPH (6 knots; 3.1 m/s)
Visibility: 6 or more miles (10+ km)
Ceiling: at least 12,000 feet AGL
Clouds: few clouds at 6600 feet AGL
Weather: no significant weather observed at this time

METAR text: UTDD 171230Z 25004MPS 9999 FEW066 32/09 Q1007 R09/D NOSIG RMK QFE688/0917
Conditions at: UTDD (DUSHANBE , TJ) observed 1230 UTC 17 June 2019
Temperature: 32.0°C (90°F)
Dewpoint: 9.0°C (48°F) [RH = 24%]
Pressure (altimeter): 29.73 inches Hg (1007.0 mb)
Winds: from the WSW (250 degrees) at 9 MPH (8 knots; 4.1 m/s)
Visibility: 6 or more miles (10+ km)
Ceiling: at least 12,000 feet AGL
Clouds: few clouds at 6600 feet AGL
Weather: no significant weather observed at this time

METAR text: UTDD 171200Z 30003MPS 260V350 9999 FEW066 32/10 Q1007 R09/D NOSIG RMK QFE688/0917
Conditions at: UTDD (DUSHANBE , TJ) observed 1200 UTC 17 June 2019
Temperature: 32.0°C (90°F)
Dewpoint: 10.0°C (50°F) [RH = 26%]
Pressure (altimeter): 29.73 inches Hg (1007.0 mb)
Winds: from the WNW (300 degrees) at 7 MPH (6 knots; 3.1 m/s)
Visibility: 6 or more miles (10+ km)
Ceiling: at least 12,000 feet AGL
Clouds: few clouds at 6600 feet AGL
Weather: no significant weather observed at this time

METAR text: UTDD 171130Z VRB02MPS 9999 FEW066 33/08 Q1008 R09/D NOSIG RMK QFE688/0917
Conditions at: UTDD (DUSHANBE , TJ) observed 1130 UTC 17 June 2019
Temperature: 33.0°C (91°F)
Dewpoint: 8.0°C (46°F) [RH = 21%]
Pressure (altimeter): 29.76 inches Hg (1008.0 mb)
Winds: variable direction winds at 5 MPH (4 knots; 2.1 m/s)
Visibility: 6 or more miles (10+ km)
Ceiling: at least 12,000 feet AGL
Clouds: few clouds at 6600 feet AGL
Weather: no significant weather observed at this time

METAR text: UTDD 171100Z 16003MPS 090V210 9999 FEW066CB SCT120 33/08 Q1008 R09/D NOSIG RMK QFE688/0918
Conditions at: UTDD (DUSHANBE , TJ) observed 1100 UTC 17 June 2019
Temperature: 33.0°C (91°F)
Dewpoint: 8.0°C (46°F) [RH = 21%]
Pressure (altimeter): 29.76 inches Hg (1008.0 mb)
Winds: from the SSE (160 degrees) at 7 MPH (6 knots; 3.1 m/s)
Visibility: 6 or more miles (10+ km)
Ceiling: at least 12,000 feet AGL
Clouds: few clouds at 6600 feet AGL
scattered clouds at 12000 feet AGL
Weather: no significant weather observed at this time

METAR text: UTDD 171030Z VRB02MPS 9999 FEW066CB 32/06 Q1008 R09/D NOSIG RMK QFE688/0918
Conditions at: UTDD (DUSHANBE , TJ) observed 1030 UTC 17 June 2019
Temperature: 32.0°C (90°F)
Dewpoint: 6.0°C (43°F) [RH = 20%]
Pressure (altimeter): 29.76 inches Hg (1008.0 mb)
Winds: variable direction winds at 5 MPH (4 knots; 2.1 m/s)
Visibility: 6 or more miles (10+ km)
Ceiling: at least 12,000 feet AGL
Clouds: few clouds at 6600 feet AGL
Weather: no significant weather observed at this time

METAR text: UTDD 171000Z 24003MPS 200V280 9999 FEW066CB 33/07 Q1009 R09/D NOSIG RMK QFE689/0918
Conditions at: UTDD (DUSHANBE , TJ) observed 1000 UTC 17 June 2019
Temperature: 33.0°C (91°F)
Dewpoint: 7.0°C (45°F) [RH = 20%]
Pressure (altimeter): 29.79 inches Hg (1009.0 mb)
Winds: from the WSW (240 degrees) at 7 MPH (6 knots; 3.1 m/s)
Visibility: 6 or more miles (10+ km)
Ceiling: at least 12,000 feet AGL
Clouds: few clouds at 6600 feet AGL
Weather: no significant weather observed at this time

METAR text: UTDD 170930Z 25003MPS 170V310 9999 FEW066CB 33/06 Q1009 R09/D NOSIG RMK QFE689/0918
Conditions at: UTDD (DUSHANBE , TJ) observed 0930 UTC 17 June 2019
Temperature: 33.0°C (91°F)
Dewpoint: 6.0°C (43°F) [RH = 19%]
Pressure (altimeter): 29.79 inches Hg (1009.0 mb)
Winds: from the WSW (250 degrees) at 7 MPH (6 knots; 3.1 m/s)
Visibility: 6 or more miles (10+ km)
Ceiling: at least 12,000 feet AGL
Clouds: few clouds at 6600 feet AGL
Weather: no significant weather observed at this time

METAR text: UTDD 170900Z 19003MPS 120V230 9999 FEW066CB 33/06 Q1009 R09/D NOSIG RMK QFE689/0919
Conditions at: UTDD (DUSHANBE , TJ) observed 0900 UTC 17 June 2019
Temperature: 33.0°C (91°F)
Dewpoint: 6.0°C (43°F) [RH = 19%]
Pressure (altimeter): 29.79 inches Hg (1009.0 mb)
Winds: from the S (190 degrees) at 7 MPH (6 knots; 3.1 m/s)
Visibility: 6 or more miles (10+ km)
Ceiling: at least 12,000 feet AGL
Clouds: few clouds at 6600 feet AGL
Weather: no significant weather observed at this time

METAR text: UTDD 170830Z VRB03MPS 9999 FEW066CB 33/03 Q1009 R09/D NOSIG RMK QFE689/0919
Conditions at: UTDD (DUSHANBE , TJ) observed 0830 UTC 17 June 2019
Temperature: 33.0°C (91°F)
Dewpoint: 3.0°C (37°F) [RH = 15%]
Pressure (altimeter): 29.79 inches Hg (1009.0 mb)
Winds: variable direction winds at 7 MPH (6 knots; 3.1 m/s)
Visibility: 6 or more miles (10+ km)
Ceiling: at least 12,000 feet AGL
Clouds: few clouds at 6600 feet AGL
Weather: no significant weather observed at this time

METAR text: UTDD 170800Z VRB02MPS 9999 FEW066CB 33/06 Q1009 R09/D NOSIG RMK QFE689/0919
Conditions at: UTDD (DUSHANBE , TJ) observed 0800 UTC 17 June 2019
Temperature: 33.0°C (91°F)
Dewpoint: 6.0°C (43°F) [RH = 19%]
Pressure (altimeter): 29.79 inches Hg (1009.0 mb)
Winds: variable direction winds at 5 MPH (4 knots; 2.1 m/s)
Visibility: 6 or more miles (10+ km)
Ceiling: at least 12,000 feet AGL
Clouds: few clouds at 6600 feet AGL
Weather: no significant weather observed at this time

METAR text: UTDD 170730Z 20003MPS 110V270 9999 FEW066CB 32/10 Q1010 R09/D NOSIG RMK QFE689/0919
Conditions at: UTDD (DUSHANBE , TJ) observed 0730 UTC 17 June 2019
Temperature: 32.0°C (90°F)
Dewpoint: 10.0°C (50°F) [RH = 26%]
Pressure (altimeter): 29.82 inches Hg (1010.0 mb)
Winds: from the SSW (200 degrees) at 7 MPH (6 knots; 3.1 m/s)
Visibility: 6 or more miles (10+ km)
Ceiling: at least 12,000 feet AGL
Clouds: few clouds at 6600 feet AGL
Weather: no significant weather observed at this time

METAR text: UTDD 170700Z VRB01MPS 9999 FEW066CB 32/10 Q1010 R09/D NOSIG RMK QFE689/0919
Conditions at: UTDD (DUSHANBE , TJ) observed 0700 UTC 17 June 2019
Temperature: 32.0°C (90°F)
Dewpoint: 10.0°C (50°F) [RH = 26%]
Pressure (altimeter): 29.82 inches Hg (1010.0 mb)
Winds: variable direction winds at 2 MPH (2 knots; 1.0 m/s)
Visibility: 6 or more miles (10+ km)
Ceiling: at least 12,000 feet AGL
Clouds: few clouds at 6600 feet AGL
Weather: no significant weather observed at this time

METAR text: UTDD 170630Z VRB02MPS 9999 FEW066 31/07 Q1010 R09/D NOSIG RMK QFE690/0919
Conditions at: UTDD (DUSHANBE , TJ) observed 0630 UTC 17 June 2019
Temperature: 31.0°C (88°F)
Dewpoint: 7.0°C (45°F) [RH = 22%]
Pressure (altimeter): 29.82 inches Hg (1010.0 mb)
Winds: variable direction winds at 5 MPH (4 knots; 2.1 m/s)
Visibility: 6 or more miles (10+ km)
Ceiling: at least 12,000 feet AGL
Clouds: few clouds at 6600 feet AGL
Weather: no significant weather observed at this time

METAR text: UTDD 170600Z VRB02MPS 9999 FEW066 31/10 Q1010 R09/D NOSIG RMK QFE690/0920
Conditions at: UTDD (DUSHANBE , TJ) observed 0600 UTC 17 June 2019
Temperature: 31.0°C (88°F)
Dewpoint: 10.0°C (50°F) [RH = 27%]
Pressure (altimeter): 29.82 inches Hg (1010.0 mb)
Winds: variable direction winds at 5 MPH (4 knots; 2.1 m/s)
Visibility: 6 or more miles (10+ km)
Ceiling: at least 12,000 feet AGL
Clouds: few clouds at 6600 feet AGL
Weather: no significant weather observed at this time

METAR text: UTDD 170530Z 11003MPS 070V140 9999 FEW066 30/10 Q1010 R09/D NOSIG RMK QFE690/0920
Conditions at: UTDD (DUSHANBE , TJ) observed 0530 UTC 17 June 2019
Temperature: 30.0°C (86°F)
Dewpoint: 10.0°C (50°F) [RH = 29%]
Pressure (altimeter): 29.82 inches Hg (1010.0 mb)
Winds: from the ESE (110 degrees) at 7 MPH (6 knots; 3.1 m/s)
Visibility: 6 or more miles (10+ km)
Ceiling: at least 12,000 feet AGL
Clouds: few clouds at 6600 feet AGL
Weather: no significant weather observed at this time

METAR text: UTDD 170500Z VRB02MPS 9999 FEW066 29/10 Q1010 R09/D NOSIG RMK QFE690/0920
Conditions at: UTDD (DUSHANBE , TJ) observed 0500 UTC 17 June 2019
Temperature: 29.0°C (84°F)
Dewpoint: 10.0°C (50°F) [RH = 31%]
Pressure (altimeter): 29.82 inches Hg (1010.0 mb)
Winds: variable direction winds at 5 MPH (4 knots; 2.1 m/s)
Visibility: 6 or more miles (10+ km)
Ceiling: at least 12,000 feet AGL
Clouds: few clouds at 6600 feet AGL
Weather: no significant weather observed at this time

METAR text: UTDD 170430Z 09002MPS 9999 FEW066 28/12 Q1011 R09/D NOSIG RMK QFE690/0920
Conditions at: UTDD (DUSHANBE , TJ) observed 0430 UTC 17 June 2019
Temperature: 28.0°C (82°F)
Dewpoint: 12.0°C (54°F) [RH = 37%]
Pressure (altimeter): 29.85 inches Hg (1011.0 mb)
Winds: from the E (90 degrees) at 5 MPH (4 knots; 2.1 m/s)
Visibility: 6 or more miles (10+ km)
Ceiling: at least 12,000 feet AGL
Clouds: few clouds at 6600 feet AGL
Weather: no significant weather observed at this time

METAR text: UTDD 170400Z VRB01MPS 9999 FEW066 27/12 Q1011 R09/D NOSIG RMK QFE690/0920
Conditions at: UTDD (DUSHANBE , TJ) observed 0400 UTC 17 June 2019
Temperature: 27.0°C (81°F)
Dewpoint: 12.0°C (54°F) [RH = 39%]
Pressure (altimeter): 29.85 inches Hg (1011.0 mb)
Winds: variable direction winds at 2 MPH (2 knots; 1.0 m/s)
Visibility: 6 or more miles (10+ km)
Ceiling: at least 12,000 feet AGL
Clouds: few clouds at 6600 feet AGL
Weather: no significant weather observed at this time

METAR text: UTDD 170330Z VRB02MPS 9999 NSC 25/11 Q1011 R09/D NOSIG RMK QFE690/0920
Conditions at: UTDD (DUSHANBE , TJ) observed 0330 UTC 17 June 2019
Temperature: 25.0°C (77°F)
Dewpoint: 11.0°C (52°F) [RH = 41%]
Pressure (altimeter): 29.85 inches Hg (1011.0 mb)
Winds: variable direction winds at 5 MPH (4 knots; 2.1 m/s)
Visibility: 6 or more miles (10+ km)
Ceiling: at least 12,000 feet AGL
Clouds: sky clear below 12,000 feet AGL
Weather: no significant weather observed at this time

METAR text: UTDD 170300Z 10003MPS 9999 NSC 24/11 Q1011 R09/D NOSIG RMK QFE690/0920
Conditions at: UTDD (DUSHANBE , TJ) observed 0300 UTC 17 June 2019
Temperature: 24.0°C (75°F)
Dewpoint: 11.0°C (52°F) [RH = 44%]
Pressure (altimeter): 29.85 inches Hg (1011.0 mb)
Winds: from the E (100 degrees) at 7 MPH (6 knots; 3.1 m/s)
Visibility: 6 or more miles (10+ km)
Ceiling: at least 12,000 feet AGL
Clouds: sky clear below 12,000 feet AGL
Weather: no significant weather observed at this time

METAR text: UTDD 170230Z 08003MPS 9999 FEW120 23/11 Q1011 R09/D NOSIG RMK QFE690/0920
Conditions at: UTDD (DUSHANBE , TJ) observed 0230 UTC 17 June 2019
Temperature: 23.0°C (73°F)
Dewpoint: 11.0°C (52°F) [RH = 47%]
Pressure (altimeter): 29.85 inches Hg (1011.0 mb)
Winds: from the E (80 degrees) at 7 MPH (6 knots; 3.1 m/s)
Visibility: 6 or more miles (10+ km)
Ceiling: at least 12,000 feet AGL
Clouds: few clouds at 12000 feet AGL
Weather: no significant weather observed at this time

METAR text: UTDD 170200Z 08002MPS 9999 FEW120 22/11 Q1011 R09/D NOSIG RMK QFE690/0920
Conditions at: UTDD (DUSHANBE , TJ) observed 0200 UTC 17 June 2019
Temperature: 22.0°C (72°F)
Dewpoint: 11.0°C (52°F) [RH = 50%]
Pressure (altimeter): 29.85 inches Hg (1011.0 mb)
Winds: from the E (80 degrees) at 5 MPH (4 knots; 2.1 m/s)
Visibility: 6 or more miles (10+ km)
Ceiling: at least 12,000 feet AGL
Clouds: few clouds at 12000 feet AGL
Weather: no significant weather observed at this time

METAR text: UTDD 170130Z 08002MPS 9999 FEW120 21/11 Q1011 R09/D NOSIG RMK QFE690/0920
Conditions at: UTDD (DUSHANBE , TJ) observed 0130 UTC 17 June 2019
Temperature: 21.0°C (70°F)
Dewpoint: 11.0°C (52°F) [RH = 53%]
Pressure (altimeter): 29.85 inches Hg (1011.0 mb)
Winds: from the E (80 degrees) at 5 MPH (4 knots; 2.1 m/s)
Visibility: 6 or more miles (10+ km)
Ceiling: at least 12,000 feet AGL
Clouds: few clouds at 12000 feet AGL
Weather: no significant weather observed at this time

METAR text: UTDD 170100Z 07003MPS 9999 NSC 19/09 Q1010 R09/D NOSIG RMK QFE690/0920
Conditions at: UTDD (DUSHANBE , TJ) observed 0100 UTC 17 June 2019
Temperature: 19.0°C (66°F)
Dewpoint: 9.0°C (48°F) [RH = 52%]
Pressure (altimeter): 29.82 inches Hg (1010.0 mb)
Winds: from the ENE (70 degrees) at 7 MPH (6 knots; 3.1 m/s)
Visibility: 6 or more miles (10+ km)
Ceiling: at least 12,000 feet AGL
Clouds: sky clear below 12,000 feet AGL
Weather: no significant weather observed at this time

METAR text: UTDD 170030Z 06002MPS 9999 NSC 18/09 Q1010 R09/D NOSIG RMK QFE690/0920
Conditions at: UTDD (DUSHANBE , TJ) observed 0030 UTC 17 June 2019
Temperature: 18.0°C (64°F)
Dewpoint: 9.0°C (48°F) [RH = 56%]
Pressure (altimeter): 29.82 inches Hg (1010.0 mb)
Winds: from the ENE (60 degrees) at 5 MPH (4 knots; 2.1 m/s)
Visibility: 6 or more miles (10+ km)
Ceiling: at least 12,000 feet AGL
Clouds: sky clear below 12,000 feet AGL
Weather: no significant weather observed at this time

METAR text: UTDD 170000Z VRB01MPS 9999 NSC 17/09 Q1010 R09/D NOSIG RMK QFE690/0920
Conditions at: UTDD (DUSHANBE , TJ) observed 0000 UTC 17 June 2019
Temperature: 17.0°C (63°F)
Dewpoint: 9.0°C (48°F) [RH = 59%]
Pressure (altimeter): 29.82 inches Hg (1010.0 mb)
Winds: variable direction winds at 2 MPH (2 knots; 1.0 m/s)
Visibility: 6 or more miles (10+ km)
Ceiling: at least 12,000 feet AGL
Clouds: sky clear below 12,000 feet AGL
Weather: no significant weather observed at this time

Forecast for: UTDD (DUSHANBE , TJ)
Text: TAF UTDD 180900Z 1810/1822 VRB02MPS 9999 FEW060CB SCT130
Forecast period: 1000 to 2200 UTC 18 June 2019
Forecast type: FROM: standard forecast or significant change
Winds: variable direction winds at 5 MPH (4 knots; 2.1 m/s)
Visibility: 6 or more miles 10+ km)
Ceiling: at least 12,000 feet AGL
Clouds: few clouds at 6000 feet AGL
scattered clouds at 13000 feet AGL
Weather: no significant weather forecast for this period
Text: TEMPO 1810/1816 27006MPS
Forecast period: 1000 to 1600 UTC 18 June 2019
Forecast type: TEMPORARY: The following changes expected for less than half the time period
Winds: from the W (270 degrees) at 14 MPH (12 knots; 6.2 m/s)
Visibility: missing
Ceiling: unknown
Clouds: missing
Weather: no significant weather forecast for this period
Text: PROB40
Forecast period: 1000 to 1600 UTC 18 June 2019
Forecast type: TEMPORARY: The following changes expected for less than half the time period
Visibility: missing
Ceiling: unknown
Clouds: missing
Weather: TS  (thunderstorm)